createdAt,value
2022-12-22T00:01:54.863Z,13.73
2022-12-22T00:04:41.163Z,15.25
2022-12-22T00:07:26.767Z,11.68
2022-12-22T00:10:12.139Z,11.90
2022-12-22T00:15:42.547Z,11.07
2022-12-22T00:18:33.849Z,9.93
2022-12-22T00:21:19.442Z,10.20
2022-12-22T00:24:04.686Z,9.85
2022-12-22T00:26:50.915Z,8.52
2022-12-22T00:29:36.152Z,9.90
2022-12-22T00:32:22.725Z,11.43
2022-12-22T00:35:08.316Z,10.27
2022-12-22T00:37:55.919Z,10.55
2022-12-22T00:40:45.474Z,9.75
2022-12-22T00:43:31.776Z,10.52
2022-12-22T00:46:19.585Z,10.48
2022-12-22T00:49:05.496Z,9.75
2022-12-22T00:51:51.680Z,10.07
2022-12-22T00:54:39.038Z,10.10
2022-12-22T00:57:23.969Z,9.55
2022-12-22T01:00:10.620Z,10.93
2022-12-22T01:02:56.011Z,10.50
2022-12-22T01:05:41.553Z,11.05
2022-12-22T01:13:58.944Z,9.35
2022-12-22T01:16:44.204Z,9.82
2022-12-22T01:19:29.585Z,10.43
2022-12-22T01:25:00.645Z,10.57
2022-12-22T01:27:45.743Z,10.57
2022-12-22T01:30:31.517Z,10.00
2022-12-22T01:33:16.971Z,10.80
2022-12-22T01:36:02.159Z,11.95
2022-12-22T01:38:47.239Z,11.93
2022-12-22T01:41:36.713Z,11.98
2022-12-22T01:44:32.190Z,11.80
2022-12-22T01:47:46.716Z,13.68
2022-12-22T01:50:34.371Z,12.10
2022-12-22T01:53:23.351Z,13.88
2022-12-22T01:56:08.609Z,13.77
2022-12-22T02:01:42.249Z,13.93
2022-12-22T02:04:28.072Z,15.70
2022-12-22T02:07:22.734Z,16.02
2022-12-22T02:10:25.635Z,14.88
2022-12-22T02:13:29.751Z,15.60
2022-12-22T02:16:23.624Z,14.38
2022-12-22T02:19:53.197Z,16.75
2022-12-22T02:23:05.478Z,15.30
2022-12-22T02:26:06.230Z,16.17
2022-12-22T02:28:52.912Z,15.55
2022-12-22T02:31:38.293Z,16.40
2022-12-22T02:34:34.336Z,15.43
2022-12-22T02:37:32.095Z,17.67
2022-12-22T02:40:21.678Z,16.80
2022-12-22T02:43:32.567Z,17.35
2022-12-22T02:46:32.436Z,17.55
2022-12-22T02:49:24.798Z,17.52
2022-12-22T02:52:19.606Z,16.80
2022-12-22T02:55:04.856Z,15.83
2022-12-22T02:57:50.206Z,15.35
2022-12-22T03:00:35.691Z,17.27
2022-12-22T03:03:21.481Z,15.88
2022-12-22T03:06:07.103Z,17.70
2022-12-22T03:08:52.144Z,16.48
2022-12-22T03:11:37.365Z,17.85
2022-12-22T03:14:23.027Z,15.35
2022-12-22T03:17:08.216Z,15.95
2022-12-22T03:19:53.316Z,15.98
2022-12-22T03:22:38.455Z,15.35
2022-12-22T03:25:24.406Z,16.02
2022-12-22T03:27:50.967Z,16.40
2022-12-22T03:30:18.081Z,17.75
2022-12-22T03:32:44.853Z,19.38
2022-12-22T03:35:11.443Z,25.13
2022-12-22T03:37:38.218Z,22.80
2022-12-22T03:40:05.354Z,20.08
2022-12-22T03:42:50.768Z,18.25
2022-12-22T03:45:43.478Z,18.00
2022-12-22T03:48:10.148Z,14.38
2022-12-22T03:50:36.889Z,16.30
2022-12-22T03:53:04.887Z,13.55
2022-12-22T03:55:31.861Z,13.57
2022-12-22T03:57:58.447Z,13.65
2022-12-22T04:00:25.147Z,13.88
2022-12-22T04:02:51.995Z,15.23
2022-12-22T04:05:18.769Z,13.85
2022-12-22T04:07:45.372Z,13.00
2022-12-22T04:10:30.856Z,13.00
2022-12-22T04:12:57.555Z,15.43
2022-12-22T04:15:32.425Z,13.95
2022-12-22T04:17:59.532Z,12.40
2022-12-22T04:20:27.517Z,12.93
2022-12-22T04:22:55.569Z,13.52
2022-12-22T04:25:23.381Z,11.93
2022-12-22T04:27:50.044Z,12.93
2022-12-22T04:30:17.850Z,12.80
2022-12-22T04:32:44.507Z,13.15
2022-12-22T04:35:12.028Z,13.68
2022-12-22T04:37:38.649Z,13.30
2022-12-22T04:40:05.980Z,12.30
2022-12-22T04:42:32.736Z,12.98
2022-12-22T04:44:59.374Z,12.43
2022-12-22T04:47:25.980Z,12.25
2022-12-22T04:49:55.363Z,12.77
2022-12-22T04:52:22.400Z,12.63
2022-12-22T04:54:49.049Z,12.82
2022-12-22T04:57:16.211Z,12.73
2022-12-22T04:59:42.902Z,12.38
2022-12-22T05:02:09.602Z,11.88
2022-12-22T05:04:36.308Z,11.90
2022-12-22T05:07:02.978Z,11.23
2022-12-22T05:09:29.682Z,11.82
2022-12-22T05:11:56.569Z,12.77
2022-12-22T05:14:23.148Z,13.73
2022-12-22T05:16:49.824Z,12.63
2022-12-22T05:19:16.866Z,12.05
2022-12-22T05:21:43.508Z,12.20
2022-12-22T05:24:10.131Z,12.15
2022-12-22T05:26:36.784Z,11.25
2022-12-22T05:29:03.555Z,11.20
2022-12-22T05:31:30.275Z,12.02
2022-12-22T05:33:57.039Z,11.20
2022-12-22T05:36:23.758Z,11.75
2022-12-22T05:38:50.351Z,12.07
2022-12-22T05:41:16.969Z,12.63
2022-12-22T05:43:43.608Z,11.30
2022-12-22T05:46:11.554Z,11.95
2022-12-22T05:48:39.984Z,11.20
2022-12-22T05:51:10.359Z,11.02
2022-12-22T05:53:38.031Z,11.52
2022-12-22T05:56:05.537Z,10.73
2022-12-22T05:58:32.860Z,10.30
2022-12-22T06:01:00.888Z,11.52
2022-12-22T06:03:28.820Z,10.30
2022-12-22T06:05:56.444Z,11.02
2022-12-22T06:08:24.069Z,13.30
2022-12-22T06:10:51.402Z,11.60
2022-12-22T06:13:18.011Z,11.77
2022-12-22T06:15:44.673Z,12.10
2022-12-22T06:18:11.500Z,11.85
2022-12-22T06:20:38.073Z,10.55
2022-12-22T06:23:04.720Z,12.50
2022-12-22T06:25:31.527Z,12.18
2022-12-22T06:27:58.150Z,11.50
2022-12-22T06:30:32.582Z,14.02
2022-12-22T06:33:01.078Z,10.32
2022-12-22T06:35:28.061Z,10.30
2022-12-22T06:37:54.736Z,12.18
2022-12-22T06:40:21.467Z,11.40
2022-12-22T06:43:08.993Z,13.18
2022-12-22T06:45:38.199Z,13.20
2022-12-22T06:48:05.137Z,31.73
2022-12-22T06:50:32.102Z,23.63
2022-12-22T06:52:58.829Z,20.88
2022-12-22T06:55:25.754Z,23.33
2022-12-22T06:57:52.394Z,19.70
2022-12-22T07:00:19.633Z,21.80
2022-12-22T07:02:46.445Z,18.98
2022-12-22T07:05:15.395Z,15.00
2022-12-22T07:07:42.015Z,17.52
2022-12-22T07:10:09.160Z,20.05
2022-12-22T07:12:35.754Z,15.75
2022-12-22T07:15:02.701Z,18.88
2022-12-22T07:17:29.327Z,21.27
2022-12-22T07:19:55.947Z,14.95
2022-12-22T07:22:29.361Z,16.63
2022-12-22T07:24:56.774Z,13.85
2022-12-22T07:27:23.415Z,15.25
2022-12-22T07:29:50.023Z,14.38
2022-12-22T07:32:16.624Z,12.82
2022-12-22T07:34:43.277Z,14.07
2022-12-22T07:37:11.819Z,13.50
2022-12-22T07:39:38.419Z,12.52
2022-12-22T07:42:23.624Z,13.32
2022-12-22T07:44:50.219Z,11.93
2022-12-22T07:47:16.846Z,17.23
2022-12-22T07:50:02.240Z,16.60
2022-12-22T07:54:55.506Z,16.08
2022-12-22T07:57:22.104Z,14.45
2022-12-22T07:59:48.807Z,13.43
2022-12-22T08:02:15.564Z,12.70
2022-12-22T08:04:42.237Z,14.63
2022-12-22T08:07:08.902Z,14.60
2022-12-22T08:09:35.490Z,14.82
2022-12-22T08:12:02.096Z,14.25
2022-12-22T08:14:28.775Z,16.42
2022-12-22T08:16:55.495Z,17.20
2022-12-22T08:19:22.140Z,15.45
2022-12-22T08:21:52.990Z,13.68
2022-12-22T08:24:20.521Z,17.75
2022-12-22T08:26:51.277Z,26.73
2022-12-22T08:29:28.986Z,21.77
2022-12-22T08:31:55.858Z,19.48
2022-12-22T08:34:22.730Z,19.73
2022-12-22T08:36:53.241Z,18.52
2022-12-22T08:39:22.408Z,22.58
2022-12-22T08:41:49.743Z,17.45
2022-12-22T08:44:24.616Z,24.17
2022-12-22T08:46:52.629Z,24.17
2022-12-22T08:49:19.804Z,22.08
2022-12-22T08:51:47.586Z,19.88
2022-12-22T08:54:15.154Z,17.38
2022-12-22T08:56:42.377Z,20.77
2022-12-22T08:59:09.711Z,16.15
2022-12-22T09:01:38.909Z,15.82
2022-12-22T09:04:09.017Z,18.83
2022-12-22T09:06:40.882Z,18.95
2022-12-22T09:09:10.500Z,21.08
2022-12-22T09:11:37.635Z,24.40
2022-12-22T09:14:05.087Z,21.20
2022-12-22T09:16:33.625Z,32.17
2022-12-22T09:19:01.786Z,29.70
2022-12-22T09:21:28.927Z,27.13
2022-12-22T09:23:56.572Z,19.25
2022-12-22T09:26:25.626Z,21.63
2022-12-22T09:28:52.651Z,17.13
2022-12-22T09:31:21.464Z,19.67
2022-12-22T09:33:48.972Z,23.35
2022-12-22T09:36:19.821Z,40.58
2022-12-22T09:38:46.679Z,50.88
2022-12-22T09:41:36.617Z,51.35
2022-12-22T09:44:16.203Z,49.58
2022-12-22T09:46:43.327Z,52.42
2022-12-22T09:49:17.738Z,41.50
2022-12-22T09:51:49.054Z,37.63
2022-12-22T09:54:16.094Z,24.90
2022-12-22T09:56:43.002Z,38.90
2022-12-22T09:59:12.475Z,49.58
2022-12-22T10:02:01.447Z,51.30
2022-12-22T10:04:38.527Z,19.75
2022-12-22T10:07:22.356Z,12.35
2022-12-22T10:09:51.196Z,8.80
2022-12-22T10:12:25.312Z,10.45
2022-12-22T10:14:54.006Z,13.45
2022-12-22T10:17:32.006Z,20.05
2022-12-22T10:20:27.456Z,44.75
2022-12-22T10:28:24.601Z,54.72
2022-12-22T10:31:11.836Z,59.40
2022-12-22T10:33:45.914Z,62.15
2022-12-22T10:36:16.090Z,65.45
2022-12-22T10:39:02.064Z,65.22
2022-12-22T10:41:41.723Z,64.22
2022-12-22T10:44:17.395Z,57.53
2022-12-22T10:46:48.020Z,65.40
2022-12-22T10:52:29.527Z,61.05
2022-12-22T10:55:23.248Z,69.38
2022-12-22T10:57:50.373Z,67.82
2022-12-22T11:00:28.964Z,73.50
2022-12-22T11:02:58.165Z,71.78
2022-12-22T11:05:25.416Z,67.30
2022-12-22T11:07:52.415Z,65.53
2022-12-22T11:10:36.659Z,65.05
2022-12-22T11:13:17.325Z,66.05
2022-12-22T11:15:49.546Z,61.20
2022-12-22T11:18:31.197Z,74.18
2022-12-22T11:21:01.385Z,76.95
2022-12-22T11:23:44.889Z,75.75
2022-12-22T11:26:36.608Z,68.05
2022-12-22T11:29:34.004Z,72.70
2022-12-22T11:32:24.347Z,63.03
2022-12-22T11:35:20.599Z,70.20
2022-12-22T11:38:25.138Z,60.70
2022-12-22T11:41:24.166Z,79.97
2022-12-22T11:43:53.525Z,89.53
2022-12-22T11:46:38.168Z,83.25
2022-12-22T11:49:10.915Z,86.88
2022-12-22T11:51:46.799Z,76.47
2022-12-22T11:54:38.207Z,64.80
2022-12-22T11:57:26.286Z,72.47
2022-12-22T12:00:08.187Z,75.30
2022-12-22T12:02:59.606Z,68.60
2022-12-22T12:05:40.944Z,91.40
2022-12-22T12:08:39.806Z,78.50
2022-12-22T12:11:31.515Z,80.85
2022-12-22T12:14:13.184Z,76.13
2022-12-22T12:17:02.647Z,64.43
2022-12-22T12:19:42.922Z,70.35
2022-12-22T12:22:26.177Z,59.45
2022-12-22T12:25:27.429Z,32.00
2022-12-22T12:28:07.799Z,27.15
2022-12-22T12:30:45.059Z,31.98
2022-12-22T12:33:20.807Z,31.40
2022-12-22T12:36:07.707Z,31.20
2022-12-22T12:39:12.972Z,32.10
2022-12-22T12:41:58.467Z,36.35
2022-12-22T12:44:28.407Z,39.75
2022-12-22T12:46:56.526Z,39.70
2022-12-22T12:49:35.734Z,40.90
2022-12-22T12:52:07.119Z,41.10
2022-12-22T12:54:47.413Z,45.45
2022-12-22T12:57:26.520Z,45.92
2022-12-22T12:59:58.225Z,41.30
2022-12-22T13:02:28.422Z,39.97
2022-12-22T13:05:36.190Z,45.83
2022-12-22T13:08:29.784Z,42.80
2022-12-22T13:10:56.703Z,40.53
2022-12-22T13:13:26.342Z,40.08
2022-12-22T13:16:02.014Z,37.55
2022-12-22T13:18:34.747Z,39.95
2022-12-22T13:24:25.748Z,40.50
2022-12-22T13:26:55.491Z,42.90
2022-12-22T13:29:22.237Z,47.60
2022-12-22T13:31:54.502Z,41.88
2022-12-22T13:34:33.184Z,40.25
2022-12-22T13:37:16.366Z,33.63
2022-12-22T13:39:43.008Z,36.92
2022-12-22T13:42:12.710Z,34.75
2022-12-22T13:44:40.842Z,33.13
2022-12-22T13:47:13.695Z,31.52
2022-12-22T13:50:07.720Z,31.17
2022-12-22T13:52:29.753Z,29.23
2022-12-22T13:54:56.430Z,30.23
2022-12-22T13:57:24.407Z,27.52
2022-12-22T13:59:51.919Z,24.38
2022-12-22T14:02:20.708Z,28.02
2022-12-22T14:05:23.015Z,27.75
2022-12-22T14:08:05.619Z,25.83
2022-12-22T14:10:36.148Z,27.38
2022-12-22T14:13:07.206Z,24.90
2022-12-22T14:15:34.430Z,27.38
2022-12-22T14:18:01.188Z,25.08
2022-12-22T14:20:37.921Z,25.65
2022-12-22T14:23:18.628Z,28.52
2022-12-22T14:25:46.344Z,28.55
2022-12-22T14:28:30.138Z,31.83
2022-12-22T14:30:59.160Z,29.20
2022-12-22T14:33:29.767Z,30.63
2022-12-22T14:36:21.698Z,31.30
2022-12-22T14:38:51.783Z,32.20
2022-12-22T14:41:46.001Z,29.80
2022-12-22T14:44:34.494Z,36.08
2022-12-22T14:47:06.323Z,34.92
2022-12-22T14:49:34.151Z,39.08
2022-12-22T14:52:07.887Z,37.78
2022-12-22T14:54:35.060Z,36.10
2022-12-22T14:57:15.219Z,40.83
2022-12-22T15:00:02.156Z,39.10
2022-12-22T15:02:39.723Z,38.58
2022-12-22T15:05:08.072Z,37.75
2022-12-22T15:08:07.154Z,41.13
2022-12-22T15:10:39.415Z,41.80
2022-12-22T15:13:12.210Z,38.47
2022-12-22T15:15:39.010Z,40.42
2022-12-22T15:18:05.762Z,40.58
2022-12-22T15:20:39.031Z,41.17
2022-12-22T15:23:12.967Z,37.58
2022-12-22T15:25:39.649Z,42.25
2022-12-22T15:28:06.508Z,39.85
2022-12-22T15:30:33.203Z,39.70
2022-12-22T15:32:59.881Z,41.40
2022-12-22T15:35:32.101Z,42.50
2022-12-22T15:37:59.722Z,40.15
2022-12-22T15:40:27.820Z,38.03
2022-12-22T15:42:54.583Z,39.55
2022-12-22T15:45:22.338Z,43.08
2022-12-22T15:47:51.801Z,40.22
2022-12-22T15:50:32.160Z,39.10
2022-12-22T15:53:04.855Z,38.92
2022-12-22T15:55:32.095Z,38.85
2022-12-22T15:57:59.707Z,34.47
2022-12-22T16:00:26.331Z,38.05
2022-12-22T16:02:53.076Z,38.22
2022-12-22T16:05:19.890Z,40.30
2022-12-22T16:07:46.556Z,38.30
2022-12-22T16:10:28.760Z,38.75
2022-12-22T16:13:00.481Z,38.90
2022-12-22T16:15:30.581Z,34.38
2022-12-22T16:17:58.222Z,39.40
2022-12-22T16:20:26.492Z,33.83
2022-12-22T16:22:53.736Z,31.17
2022-12-22T16:25:24.748Z,31.13
2022-12-22T16:27:51.563Z,30.80
2022-12-22T16:30:24.009Z,30.65
2022-12-22T16:32:51.039Z,29.05
2022-12-22T16:35:20.684Z,30.27
2022-12-22T16:37:51.135Z,28.48
2022-12-22T16:40:19.103Z,25.98
2022-12-22T16:45:54.393Z,23.65
2022-12-22T16:48:35.260Z,23.10
2022-12-22T16:51:02.045Z,24.20
2022-12-22T16:53:28.988Z,28.70
2022-12-22T16:55:57.051Z,34.67
2022-12-22T16:58:23.693Z,36.78
2022-12-22T17:00:50.408Z,28.65
2022-12-22T17:03:25.135Z,22.90
2022-12-22T17:05:54.568Z,22.48
2022-12-22T17:08:33.950Z,22.65
2022-12-22T17:11:10.184Z,31.85
2022-12-22T17:13:38.752Z,30.38
2022-12-22T17:16:05.749Z,36.08
2022-12-22T17:18:33.245Z,28.58
2022-12-22T17:21:00.684Z,49.22
2022-12-22T17:23:39.235Z,40.15
2022-12-22T17:26:15.326Z,30.45
2022-12-22T17:28:42.999Z,27.25
2022-12-22T17:31:15.677Z,36.63
2022-12-22T17:33:42.368Z,30.52
2022-12-22T17:36:28.945Z,21.67
2022-12-22T17:38:55.783Z,21.77
2022-12-22T17:41:22.417Z,18.92
2022-12-22T17:43:48.999Z,21.73
2022-12-22T17:46:17.875Z,20.25
2022-12-22T17:48:45.235Z,17.55
2022-12-22T17:51:24.841Z,20.25
2022-12-22T17:53:52.299Z,22.33
2022-12-22T17:56:22.123Z,24.70
2022-12-22T17:58:48.983Z,25.08
2022-12-22T18:01:18.737Z,25.35
2022-12-22T18:03:45.407Z,27.30
2022-12-22T18:06:17.641Z,27.95
2022-12-22T18:08:45.416Z,34.58
2022-12-22T18:11:12.587Z,36.30
2022-12-22T18:13:39.583Z,37.25
2022-12-22T18:16:10.777Z,38.72
2022-12-22T18:18:37.569Z,45.30
2022-12-22T18:21:06.028Z,34.17
2022-12-22T18:23:36.322Z,29.77
2022-12-22T18:26:05.581Z,26.75
2022-12-22T18:28:32.493Z,26.95
2022-12-22T18:30:59.257Z,32.80
2022-12-22T18:33:26.026Z,34.83
2022-12-22T18:35:52.739Z,35.25
2022-12-22T18:38:30.352Z,34.35
2022-12-22T18:40:57.080Z,29.10
2022-12-22T18:43:24.087Z,38.22
2022-12-22T18:45:50.757Z,41.10
2022-12-22T18:48:17.351Z,33.17
2022-12-22T18:50:44.192Z,27.15
2022-12-22T18:53:26.359Z,27.27
2022-12-22T18:55:53.267Z,32.22
2022-12-22T18:58:20.090Z,35.25
2022-12-22T19:00:47.392Z,32.40
2022-12-22T19:03:19.212Z,33.97
2022-12-22T19:05:47.581Z,29.77
2022-12-22T19:08:19.438Z,32.00
2022-12-22T19:10:52.386Z,27.23
2022-12-22T19:13:44.097Z,29.27
2022-12-22T19:16:17.014Z,28.65
2022-12-22T19:18:44.278Z,31.73
2022-12-22T19:21:15.684Z,32.80
2022-12-22T19:23:43.653Z,34.20
2022-12-22T19:26:18.354Z,36.45
2022-12-22T19:28:45.526Z,31.77
2022-12-22T19:31:33.253Z,29.55
2022-12-22T19:34:03.654Z,38.15
2022-12-22T19:36:31.850Z,33.75
2022-12-22T19:39:04.541Z,25.88
2022-12-22T19:41:49.874Z,23.15
2022-12-22T19:44:35.957Z,23.58
2022-12-22T19:47:02.705Z,20.50
2022-12-22T19:49:29.662Z,21.90
2022-12-22T19:51:57.388Z,21.40
2022-12-22T19:54:24.450Z,21.58
2022-12-22T19:56:54.518Z,20.27
2022-12-22T19:59:44.707Z,17.80
2022-12-22T20:02:21.103Z,21.30
2022-12-22T20:04:48.952Z,23.95
2022-12-22T20:07:21.362Z,24.77
2022-12-22T20:09:48.658Z,21.10
2022-12-22T20:12:22.363Z,20.90
2022-12-22T20:14:49.317Z,18.73
2022-12-22T20:17:15.917Z,21.42
2022-12-22T20:19:42.572Z,22.92
2022-12-22T20:22:15.874Z,19.05
2022-12-22T20:24:43.139Z,19.50
2022-12-22T20:27:18.758Z,21.23
2022-12-22T20:29:45.369Z,22.27
2022-12-22T20:32:15.612Z,24.50
2022-12-22T20:34:42.352Z,23.98
2022-12-22T20:37:17.011Z,28.38
2022-12-22T20:39:43.738Z,27.70
2022-12-22T20:42:21.688Z,27.83
2022-12-22T20:45:03.813Z,24.90
2022-12-22T20:47:33.212Z,23.80
2022-12-22T20:50:00.157Z,23.02
2022-12-22T20:52:26.821Z,25.25
2022-12-22T20:54:53.422Z,25.98
2022-12-22T20:57:22.680Z,28.00
2022-12-22T20:59:55.783Z,28.02
2022-12-22T21:02:26.828Z,24.65
2022-12-22T21:04:53.815Z,25.50
2022-12-22T21:07:20.432Z,24.50
2022-12-22T21:09:47.117Z,25.40
2022-12-22T21:12:13.864Z,24.08
2022-12-22T21:14:40.529Z,25.35
2022-12-22T21:17:16.416Z,28.25
2022-12-22T21:19:43.271Z,33.33
2022-12-22T21:22:10.024Z,33.38
2022-12-22T21:24:37.051Z,31.17
2022-12-22T21:27:04.840Z,31.33
2022-12-22T21:29:31.698Z,29.20
2022-12-22T21:31:58.347Z,30.77
2022-12-22T21:34:25.016Z,35.45
2022-12-22T21:36:59.212Z,30.05
2022-12-22T21:39:39.090Z,24.38
2022-12-22T21:42:06.346Z,19.67
2022-12-22T21:44:35.199Z,20.85
2022-12-22T21:47:02.742Z,12.90
2022-12-22T21:49:31.762Z,11.57
2022-12-22T21:51:58.443Z,9.38
2022-12-22T21:54:25.920Z,7.78
2022-12-22T21:56:54.098Z,6.53
2022-12-22T21:59:21.076Z,4.80
2022-12-22T22:01:48.011Z,5.70
2022-12-22T22:04:14.856Z,5.70
2022-12-22T22:06:41.468Z,6.70
2022-12-22T22:09:08.271Z,5.95
2022-12-22T22:11:58.121Z,4.97
2022-12-22T22:14:25.749Z,4.38
2022-12-22T22:16:52.712Z,3.28
2022-12-22T22:19:19.351Z,3.30
2022-12-22T22:21:46.600Z,4.05
2022-12-22T22:24:13.791Z,2.88
2022-12-22T22:26:40.468Z,4.68
2022-12-22T22:29:07.268Z,3.50
2022-12-22T22:31:34.082Z,2.75
2022-12-22T22:34:00.722Z,2.97
2022-12-22T22:36:27.414Z,3.03
2022-12-22T22:38:54.264Z,2.58
2022-12-22T22:41:20.879Z,2.58
2022-12-22T22:43:47.491Z,3.30
2022-12-22T22:46:14.423Z,2.42
2022-12-22T22:48:41.107Z,2.20
2022-12-22T22:51:10.629Z,2.90
2022-12-22T22:53:37.297Z,2.78
2022-12-22T22:56:04.474Z,1.85
2022-12-22T22:58:31.288Z,4.15
2022-12-22T23:01:07.774Z,2.20
2022-12-22T23:03:35.453Z,3.00
2022-12-22T23:06:03.510Z,3.22
2022-12-22T23:08:30.693Z,3.17
2022-12-22T23:10:58.163Z,2.70
2022-12-22T23:13:24.851Z,2.50
2022-12-22T23:16:03.292Z,2.40
2022-12-22T23:18:31.375Z,3.72
2022-12-22T23:21:01.932Z,4.00
2022-12-22T23:23:29.763Z,3.08
2022-12-22T23:25:56.535Z,3.13
2022-12-22T23:28:23.852Z,3.55
2022-12-22T23:30:52.499Z,3.30
2022-12-22T23:33:20.153Z,3.45
2022-12-22T23:35:48.929Z,3.63
2022-12-22T23:38:16.359Z,3.90
2022-12-22T23:40:58.540Z,4.07
2022-12-22T23:43:25.234Z,3.30
2022-12-22T23:45:51.841Z,3.65
2022-12-22T23:48:18.447Z,4.00
2022-12-22T23:50:48.693Z,4.20
2022-12-22T23:53:16.987Z,3.67
2022-12-22T23:55:45.008Z,2.80
2022-12-22T23:58:11.933Z,3.05
